createdAt,value
2017-10-25T00:00:11.099Z,99.9
2017-10-25T00:05:13.496Z,99.9
2017-10-25T00:10:10.372Z,99.9
2017-10-25T00:15:05.708Z,99.9
2017-10-25T00:20:03.108Z,99.9
2017-10-25T00:25:03.011Z,99.9
2017-10-25T00:30:05.461Z,99.9
2017-10-25T00:35:07.872Z,99.9
2017-10-25T00:40:15.902Z,99.9
2017-10-25T00:45:05.066Z,99.9
2017-10-25T00:50:08.515Z,99.9
2017-10-25T00:55:10.892Z,99.9
2017-10-25T01:00:10.877Z,99.9
2017-10-25T01:05:03.068Z,99.9
2017-10-25T01:10:06.086Z,99.9
2017-10-25T01:15:02.882Z,99.9
2017-10-25T01:20:02.829Z,99.9
2017-10-25T01:25:02.707Z,99.9
2017-10-25T01:30:02.675Z,99.9
2017-10-25T01:35:03.476Z,99.9
2017-10-25T01:40:05.442Z,99.9
2017-10-25T01:45:05.775Z,99.9
2017-10-25T01:50:08.274Z,99.9
2017-10-25T01:55:18.243Z,99.9
2017-10-25T02:00:02.973Z,99.9
2017-10-25T02:05:15.563Z,99.9
2017-10-25T02:10:08.449Z,99.9
2017-10-25T02:15:10.299Z,99.9
2017-10-25T02:20:15.312Z,99.9
2017-10-25T02:25:05.122Z,99.9
2017-10-25T02:30:06.064Z,99.9
2017-10-25T02:35:10.986Z,99.9
2017-10-25T02:40:03.480Z,99.9
2017-10-25T02:45:18.375Z,99.9
2017-10-25T02:50:05.669Z,99.9
2017-10-25T02:55:05.586Z,99.9
2017-10-25T03:00:18.148Z,99.9
2017-10-25T03:05:05.459Z,99.9
2017-10-25T03:10:05.977Z,99.9
2017-10-25T03:15:07.764Z,99.9
2017-10-25T03:20:05.241Z,99.9
2017-10-25T03:25:05.144Z,99.9
2017-10-25T03:30:05.977Z,99.9
2017-10-25T03:35:11.020Z,99.9
2017-10-25T03:40:05.357Z,99.9
2017-10-25T03:45:05.731Z,99.9
2017-10-25T03:50:20.914Z,99.9
2017-10-25T03:55:18.260Z,99.9
2017-10-25T04:00:05.624Z,99.9
2017-10-25T04:05:02.952Z,99.9
2017-10-25T04:10:05.900Z,99.9
2017-10-25T04:15:05.334Z,99.9
2017-10-25T04:20:05.239Z,99.9
2017-10-25T04:25:07.710Z,99.9
2017-10-25T04:30:06.151Z,99.9
2017-10-25T04:35:03.444Z,99.9
2017-10-25T04:40:02.859Z,99.9
2017-10-25T04:45:08.339Z,99.9
2017-10-25T04:50:03.205Z,99.9
2017-10-25T04:55:05.628Z,99.9
2017-10-25T05:00:05.538Z,99.9
2017-10-25T05:05:20.576Z,99.9
2017-10-25T05:10:03.250Z,99.9
2017-10-25T05:15:05.167Z,99.9
2017-10-25T05:20:08.599Z,99.9
2017-10-25T05:25:03.432Z,99.9
2017-10-25T05:30:03.377Z,99.9
2017-10-25T05:35:03.237Z,99.9
2017-10-25T05:40:07.730Z,99.9
2017-10-25T05:45:08.101Z,99.9
2017-10-25T05:50:13.072Z,99.9
2017-10-25T05:55:07.855Z,99.9
2017-10-25T06:00:05.273Z,99.9
2017-10-25T06:05:07.662Z,99.9
2017-10-25T06:10:03.152Z,99.9
2017-10-25T06:15:03.423Z,99.9
2017-10-25T06:20:05.979Z,99.9
2017-10-25T06:25:21.004Z,99.9
2017-10-25T06:30:26.072Z,99.9
2017-10-25T06:35:05.596Z,99.9
2017-10-25T06:40:03.505Z,99.9
2017-10-25T06:45:33.260Z,99.9
2017-10-25T06:50:02.871Z,99.9
2017-10-25T06:55:05.308Z,99.9
2017-10-25T07:00:07.843Z,99.9
2017-10-25T07:05:02.648Z,99.9
2017-10-25T07:10:03.141Z,99.9
2017-10-25T07:15:33.852Z,99.9
2017-10-25T07:20:08.526Z,99.9
2017-10-25T07:25:08.434Z,99.9
2017-10-25T07:30:08.416Z,99.9
2017-10-25T07:35:05.845Z,99.9
2017-10-25T07:40:05.211Z,99.9
2017-10-25T07:45:15.884Z,99.9
2017-10-25T07:50:08.278Z,99.9
2017-10-25T07:55:10.751Z,99.9
2017-10-25T08:00:10.748Z,99.9
2017-10-25T08:05:05.652Z,99.9
2017-10-25T08:10:05.137Z,99.9
2017-10-25T08:15:08.094Z,99.9
2017-10-25T08:20:03.076Z,99.9
2017-10-25T08:25:05.623Z,99.9
2017-10-25T08:30:10.608Z,99.9
2017-10-25T08:35:05.563Z,99.9
2017-10-25T08:40:03.481Z,99.9
2017-10-25T08:45:05.483Z,99.9
2017-10-25T08:50:08.015Z,99.9
2017-10-25T08:55:05.406Z,99.9
2017-10-25T09:00:13.011Z,99.9
2017-10-25T09:05:02.863Z,99.9
2017-10-25T09:10:05.940Z,99.9
2017-10-25T09:15:10.409Z,99.9
2017-10-25T09:20:10.465Z,99.9
2017-10-25T09:25:23.067Z,99.9
2017-10-25T09:30:05.479Z,99.9
2017-10-25T09:35:10.514Z,99.9
2017-10-25T09:40:05.935Z,99.9
2017-10-25T09:45:30.729Z,99.6
2017-10-25T09:50:02.954Z,99.6
2017-10-25T09:55:10.561Z,99.8
2017-10-25T10:00:02.995Z,99.8
2017-10-25T10:05:05.508Z,99.5
2017-10-25T10:10:03.531Z,99.5
2017-10-25T10:15:05.538Z,99.6
2017-10-25T10:20:08.081Z,99.1
2017-10-25T10:25:03.060Z,99.1
2017-10-25T10:30:05.677Z,98.6
2017-10-25T10:35:05.722Z,98.1
2017-10-25T10:40:05.526Z,98.1
2017-10-25T10:45:10.914Z,98.2
2017-10-25T10:50:05.950Z,97.7
2017-10-25T10:55:05.998Z,97.8
2017-10-25T11:00:03.536Z,97.8
2017-10-25T11:05:07.692Z,96.9
2017-10-25T11:10:05.760Z,96.3
2017-10-25T11:15:20.499Z,95.8
2017-10-25T11:20:10.483Z,95.6
2017-10-25T11:25:08.090Z,95.9
2017-10-25T11:30:03.040Z,95.9
2017-10-25T11:35:15.814Z,95.2
2017-10-25T11:40:10.319Z,95.2
2017-10-25T11:45:03.353Z,95.2
2017-10-25T11:50:16.078Z,94.2
2017-10-25T11:55:02.601Z,94.2
2017-10-25T12:00:02.671Z,93.6
2017-10-25T12:05:07.768Z,93.2
2017-10-25T12:10:10.856Z,92.8
2017-10-25T12:15:15.530Z,93.5
2017-10-25T12:20:23.212Z,92.6
2017-10-25T12:25:03.069Z,92.7
2017-10-25T12:30:08.272Z,92.1
2017-10-25T12:35:03.261Z,92
2017-10-25T12:40:02.848Z,92.3
2017-10-25T12:45:18.628Z,92.8
2017-10-25T12:50:03.530Z,92.8
2017-10-25T12:55:02.719Z,92.8
2017-10-25T13:00:05.324Z,92.3
2017-10-25T13:05:10.565Z,92.5
2017-10-25T13:10:03.486Z,92.5
2017-10-25T13:15:10.716Z,91.9
2017-10-25T13:20:20.989Z,92.8
2017-10-25T13:25:03.290Z,92.8
2017-10-25T13:30:05.931Z,91.8
2017-10-25T13:35:11.096Z,91.5
2017-10-25T13:40:03.145Z,91.5
2017-10-25T13:45:02.639Z,91.2
2017-10-25T13:50:12.853Z,90.3
2017-10-25T13:55:02.752Z,90.3
2017-10-25T14:00:05.373Z,88.2
2017-10-25T14:05:10.472Z,87.6
2017-10-25T14:10:23.719Z,88.5
2017-10-25T14:15:10.578Z,88.2
2017-10-25T14:20:03.034Z,88.2
2017-10-25T14:25:08.044Z,88.1
2017-10-25T14:30:08.116Z,89.6
2017-10-25T14:35:03.154Z,89.6
2017-10-25T14:40:05.231Z,90.4
2017-10-25T14:45:03.284Z,90.4
2017-10-25T14:50:03.374Z,90.4
2017-10-25T14:55:05.964Z,90.9
2017-10-25T15:00:03.481Z,90.9
2017-10-25T15:05:02.583Z,91
2017-10-25T15:10:03.073Z,90.6
2017-10-25T15:15:05.172Z,91
2017-10-25T15:20:12.793Z,90.8
2017-10-25T15:25:02.693Z,90.8
2017-10-25T15:30:02.750Z,91.1
2017-10-25T15:35:12.899Z,90.1
2017-10-25T15:40:10.924Z,90
2017-10-25T15:45:15.491Z,90.1
2017-10-25T15:50:02.873Z,90.1
2017-10-25T15:55:13.008Z,89.8
2017-10-25T16:00:33.204Z,90.2
2017-10-25T16:05:10.469Z,90.4
2017-10-25T16:10:05.939Z,92.9
2017-10-25T16:15:07.929Z,94.3
2017-10-25T16:20:05.374Z,94.7
2017-10-25T16:25:02.796Z,94.7
2017-10-25T16:30:05.276Z,94.6
2017-10-25T16:35:05.306Z,94.6
2017-10-25T16:40:03.235Z,94.6
2017-10-25T16:45:35.640Z,94.4
2017-10-25T16:50:05.193Z,94.5
2017-10-25T16:55:05.220Z,94.6
2017-10-25T17:00:05.280Z,94.8
2017-10-25T17:05:10.284Z,95
2017-10-25T17:10:03.167Z,95
2017-10-25T17:15:05.251Z,95.4
2017-10-25T17:20:10.253Z,95.6
2017-10-25T17:25:02.629Z,95.6
2017-10-25T17:30:02.670Z,95.9
2017-10-25T17:35:20.262Z,96
2017-10-25T17:40:10.554Z,96
2017-10-25T17:45:03.454Z,96
2017-10-25T17:50:03.466Z,96.3
2017-10-25T17:55:10.966Z,96.6
2017-10-25T18:00:21.064Z,96.7
2017-10-25T18:05:08.336Z,96.8
2017-10-25T18:10:07.829Z,96.9
2017-10-25T18:15:33.533Z,97
2017-10-25T18:20:08.251Z,97.2
2017-10-25T18:25:05.589Z,97.3
2017-10-25T18:30:05.515Z,97.4
2017-10-25T18:35:10.503Z,97.6
2017-10-25T18:40:03.415Z,97.6
2017-10-25T18:45:07.881Z,97.7
2017-10-25T18:50:05.258Z,97.8
2017-10-25T18:55:07.742Z,97.8
2017-10-25T19:00:05.171Z,97.9
2017-10-25T19:05:07.637Z,97.8
2017-10-25T19:10:05.548Z,97.9
2017-10-25T19:15:03.448Z,97.9
2017-10-25T19:20:03.483Z,97.9
2017-10-25T19:25:05.878Z,98.2
2017-10-25T19:30:23.548Z,98.3
2017-10-25T19:35:03.220Z,98.3
2017-10-25T19:40:02.708Z,98.4
2017-10-25T19:45:03.124Z,98.5
2017-10-25T19:50:08.159Z,98.7
2017-10-25T19:55:05.476Z,98.8
2017-10-25T20:00:10.519Z,98.7
2017-10-25T20:05:15.453Z,98.7
2017-10-25T20:10:18.496Z,98.8
2017-10-25T20:15:05.227Z,98.8
2017-10-25T20:20:10.289Z,98.8
2017-10-25T20:25:07.664Z,98.6
2017-10-25T20:30:03.494Z,98.6
2017-10-25T20:35:03.429Z,98.7
2017-10-25T20:40:07.946Z,98.8
2017-10-25T20:45:05.735Z,98.7
2017-10-25T20:50:03.207Z,98.7
2017-10-25T20:55:05.581Z,98.3
2017-10-25T21:00:08.012Z,98
2017-10-25T21:05:05.430Z,97.1
2017-10-25T21:10:08.436Z,96.3
2017-10-25T21:15:17.840Z,95.9
2017-10-25T21:20:11.135Z,95.6
2017-10-25T21:25:05.926Z,95.5
2017-10-25T21:30:05.890Z,95.7
2017-10-25T21:35:05.711Z,96.9
2017-10-25T21:40:08.658Z,97.8
2017-10-25T21:45:02.850Z,97.8
2017-10-25T21:50:12.936Z,98.8
2017-10-25T21:55:02.670Z,98.8
2017-10-25T22:00:23.769Z,98.9
2017-10-25T22:05:10.976Z,98.9
2017-10-25T22:10:02.837Z,98.9
2017-10-25T22:15:38.621Z,98.7
2017-10-25T22:20:18.355Z,98.7
2017-10-25T22:25:02.995Z,98.7
2017-10-25T22:30:08.015Z,98.6
2017-10-25T22:35:02.753Z,98.6
2017-10-25T22:40:03.186Z,98.6
2017-10-25T22:45:05.097Z,98.8
2017-10-25T22:50:05.988Z,98.8
2017-10-25T22:55:05.872Z,98.7
2017-10-25T23:05:10.740Z,98.7
2017-10-25T23:10:02.608Z,98.7
2017-10-25T23:15:10.573Z,98.2
2017-10-25T23:20:07.976Z,97.5
2017-10-25T23:25:17.974Z,96.9
2017-10-25T23:30:15.380Z,97.3
2017-10-25T23:35:08.559Z,97.8
2017-10-25T23:40:07.896Z,97.8
2017-10-25T23:45:05.696Z,97.5
2017-10-25T23:50:08.173Z,97.5
2017-10-25T23:55:02.871Z,97.6
